Time;durP1;ratioP1;P1;durP2;ratioP2;P2;SDS_P1;SDS_P2;PMS_P1;PMS_P2;Temp;Humidity;BMP_temperature;BMP_pressure;BME280_temperature;BME280_humidity;BME280_pressure;Samples;Min_cycle;Max_cycle;Signal;HPM_P1;HPM_P2
2022/05/07 00:01:45;;;;;;;3.67;1.05;;;;;;;15.14;54.91;102383.16;5018115;28;112758;-34
2022/05/07 00:04:10;;;;;;;2.50;1.40;;;;;;;15.11;54.99;102384.22;5018675;28;112676;-34
2022/05/07 00:06:35;;;;;;;1.85;1.23;;;;;;;15.10;55.14;102382.44;5016746;28;114844;-35
2022/05/07 00:09:01;;;;;;;2.13;1.08;;;;;;;15.06;55.16;102383.56;5017816;28;125856;-35
2022/05/07 00:11:26;;;;;;;5.13;1.25;;;;;;;15.04;55.25;102377.31;5018989;28;96799;-34
2022/05/07 00:13:51;;;;;;;6.13;1.63;;;;;;;15.06;55.27;102372.66;5000434;28;100212;-34
2022/05/07 00:19:01;;;;;;;2.83;0.77;;;;;;;14.98;55.39;102367.63;5019753;28;97101;-34
2022/05/07 00:21:26;;;;;;;2.40;1.42;;;;;;;14.98;55.67;102366.75;5019355;28;96387;-34
2022/05/07 00:23:52;;;;;;;3.30;1.15;;;;;;;14.91;55.68;102368.94;5001074;28;96878;-34
2022/05/07 00:26:17;;;;;;;2.83;1.50;;;;;;;14.95;56.08;102372.38;5018329;28;98001;-34
2022/05/07 00:28:44;;;;;;;3.10;1.30;;;;;;;15.00;55.87;102375.72;5018156;28;117084;-34
2022/05/07 00:31:09;;;;;;;2.97;1.45;;;;;;;14.95;56.09;102370.53;5017792;28;96565;-34
2022/05/07 00:33:35;;;;;;;2.70;1.23;;;;;;;14.93;56.19;102361.53;5018080;28;111450;-35
2022/05/07 00:36:00;;;;;;;6.95;1.40;;;;;;;14.98;56.15;102369.47;5017584;28;123414;-34
2022/05/07 00:38:26;;;;;;;2.33;1.50;;;;;;;14.98;56.25;102353.09;5017855;28;115765;-34
2022/05/07 00:40:52;;;;;;;2.50;1.52;;;;;;;14.98;56.36;102358.56;5018842;28;96509;-34
2022/05/07 00:43:18;;;;;;;2.65;1.48;;;;;;;14.94;56.58;102340.59;5019458;28;96790;-34
2022/05/07 00:45:45;;;;;;;3.38;1.33;;;;;;;14.99;56.95;102344.84;5016974;28;100934;-34
2022/05/07 00:48:12;;;;;;;2.33;1.33;;;;;;;14.93;57.10;102342.44;5000169;28;100828;-35
2022/05/07 00:53:22;;;;;;;2.17;1.13;;;;;;;14.91;57.83;102338.03;5018958;28;96586;-34
2022/05/07 00:55:49;;;;;;;5.10;1.75;;;;;;;14.89;57.50;102345.44;5018389;28;97950;-34
2022/05/07 00:58:15;;;;;;;6.63;1.90;;;;;;;14.86;57.61;102349.22;5018271;28;97306;-34
2022/05/07 01:00:43;;;;;;;3.50;1.30;;;;;;;14.82;57.96;102343.03;5000257;28;96742;-35
2022/05/07 01:03:09;;;;;;;5.60;1.90;;;;;;;14.78;57.85;102344.19;5018330;28;96881;-34
2022/05/07 01:05:34;;;;;;;2.75;1.20;;;;;;;14.82;58.02;102353.06;5018155;28;98011;-34
2022/05/07 01:08:00;;;;;;;3.47;1.63;;;;;;;14.82;58.10;102355.78;5017538;28;126496;-34
2022/05/07 01:10:27;;;;;;;3.45;1.35;;;;;;;14.79;57.90;102350.53;4999832;28;96918;-35
2022/05/07 01:12:54;;;;;;;4.25;1.42;;;;;;;14.75;58.21;102349.78;5000194;28;96834;-34
2022/05/07 01:15:19;;;;;;;3.85;1.83;;;;;;;14.76;58.48;102357.03;4999348;28;100967;-34
2022/05/07 01:17:45;;;;;;;3.85;1.67;;;;;;;14.75;58.44;102354.38;5017624;28;99092;-34
2022/05/07 01:20:12;;;;;;;4.18;1.83;;;;;;;14.72;58.72;102347.25;5018428;28;96845;-34
2022/05/07 01:22:38;;;;;;;4.20;1.83;;;;;;;14.64;58.95;102330.44;5018202;28;96899;-34
2022/05/07 01:25:04;;;;;;;2.50;1.55;;;;;;;14.71;58.79;102345.50;4999624;28;100861;-34
2022/05/07 01:27:30;;;;;;;5.00;1.40;;;;;;;14.61;59.23;102347.84;5016189;28;101504;-34
2022/05/07 01:29:55;;;;;;;3.95;2.05;;;;;;;14.63;59.11;102345.91;5017958;28;96739;-34
2022/05/07 01:32:22;;;;;;;4.18;2.00;;;;;;;14.60;59.34;102345.19;5018518;28;96789;-34
2022/05/07 01:34:47;;;;;;;5.47;1.58;;;;;;;14.58;59.83;102345.25;5016167;28;101130;-34
2022/05/07 01:37:13;;;;;;;6.80;2.33;;;;;;;14.56;59.79;102329.94;5016026;28;100868;-34
2022/05/07 01:39:38;;;;;;;4.35;1.77;;;;;;;14.56;59.83;102339.03;5017704;28;96577;-34
2022/05/07 01:42:04;;;;;;;6.32;2.08;;;;;;;14.55;60.02;102341.84;5015870;28;111188;-34
2022/05/07 01:44:29;;;;;;;3.55;1.77;;;;;;;14.53;59.63;102338.28;5017513;28;97575;-35
2022/05/07 01:49:38;;;;;;;6.20;2.40;;;;;;;14.51;60.98;102332.03;5018035;28;96522;-34
2022/05/07 01:52:03;;;;;;;3.42;1.55;;;;;;;14.50;60.20;102336.59;5017312;28;105483;-34
2022/05/07 01:54:29;;;;;;;6.88;2.35;;;;;;;14.45;61.23;102334.13;5017339;28;97979;-35
2022/05/07 01:56:54;;;;;;;6.88;2.67;;;;;;;14.46;61.02;102332.28;5016963;28;97798;-35
2022/05/07 01:59:19;;;;;;;6.28;2.40;;;;;;;14.40;61.67;102322.59;5016832;28;110987;-35
2022/05/07 02:01:45;;;;;;;9.75;2.38;;;;;;;14.41;60.74;102331.63;5016861;28;111827;-34
2022/05/07 02:04:10;;;;;;;8.13;2.78;;;;;;;14.37;60.83;102322.75;5016794;28;97968;-35
2022/05/07 02:06:35;;;;;;;4.63;1.90;;;;;;;14.38;60.96;102329.97;5016241;28;124401;-35
2022/05/07 02:09:01;;;;;;;4.80;2.28;;;;;;;14.30;61.14;102313.16;5016453;28;111801;-35
2022/05/07 02:11:26;;;;;;;3.90;2.03;;;;;;;14.33;62.15;102318.44;5016459;28;110842;-35
2022/05/07 02:13:51;;;;;;;7.45;2.95;;;;;;;14.36;61.46;102326.44;5015584;28;127159;-34
2022/05/07 02:16:16;;;;;;;6.47;2.63;;;;;;;14.30;62.18;102310.44;5015991;28;126239;-34
2022/05/07 02:18:42;;;;;;;8.00;2.85;;;;;;;14.27;63.04;102309.69;5016883;28;106766;-35
2022/05/07 02:21:07;;;;;;;4.55;1.92;;;;;;;14.32;62.18;102330.28;5017766;28;96867;-34
2022/05/07 02:23:32;;;;;;;8.05;2.42;;;;;;;14.32;62.00;102323.94;5016704;28;99274;-35
2022/05/07 02:25:58;;;;;;;5.45;2.15;;;;;;;14.30;61.55;102321.34;5017038;28;97816;-34
2022/05/07 02:28:23;;;;;;;5.50;2.67;;;;;;;14.27;62.03;102315.16;5016896;28;96677;-35
2022/05/07 02:30:48;;;;;;;9.75;3.05;;;;;;;14.22;63.25;102310.81;5016454;28;112516;-35
2022/05/07 02:33:14;;;;;;;8.57;2.83;;;;;;;14.17;62.51;102309.31;5016084;28;120628;-35
2022/05/07 02:35:39;;;;;;;7.20;2.47;;;;;;;14.06;62.62;102309.84;5016815;28;97358;-35
2022/05/07 02:38:04;;;;;;;8.75;2.65;;;;;;;14.10;62.80;102326.94;5016976;28;96699;-35
2022/05/07 02:40:30;;;;;;;7.70;3.03;;;;;;;14.05;64.08;102318.13;5017096;28;96837;-35
2022/05/07 02:42:55;;;;;;;6.13;2.38;;;;;;;14.00;63.90;102319.25;5015600;28;122813;-35
2022/05/07 02:45:20;;;;;;;7.93;2.60;;;;;;;14.02;63.91;102317.34;5016112;28;126691;-35
2022/05/07 02:47:46;;;;;;;4.18;2.17;;;;;;;14.02;62.61;102327.34;5016902;28;96644;-35
2022/05/07 02:50:12;;;;;;;5.88;2.90;;;;;;;13.92;63.36;102321.50;5017254;28;96793;-34
2022/05/07 02:52:38;;;;;;;6.32;2.53;;;;;;;14.01;64.51;102340.09;4997876;28;101337;-35
2022/05/07 02:55:06;;;;;;;9.48;2.88;;;;;;;14.01;63.67;102341.91;4998631;28;100744;-34
2022/05/07 02:57:31;;;;;;;10.88;3.22;;;;;;;13.94;63.33;102318.69;4998683;28;96782;-35
2022/05/07 02:59:56;;;;;;;12.18;3.15;;;;;;;14.01;63.61;102340.09;5017142;28;96819;-35
2022/05/07 03:02:22;;;;;;;9.13;3.10;;;;;;;13.96;64.93;102336.72;5016504;28;97825;-34
2022/05/07 03:04:52;;;;;;;9.90;3.42;;;;;;;13.99;64.59;102342.03;5016673;28;98001;-35
2022/05/07 03:07:17;;;;;;;10.88;3.00;;;;;;;13.98;63.98;102342.97;5016690;28;97816;-35
2022/05/07 03:09:42;;;;;;;9.20;3.05;;;;;;;13.99;63.84;102350.19;5017621;28;98828;-35
2022/05/07 03:12:09;;;;;;;5.30;2.65;;;;;;;13.96;63.51;102338.56;5019654;28;97535;-35
2022/05/07 03:14:35;;;;;;;6.55;3.08;;;;;;;13.94;63.65;102337.75;5019392;28;98290;-35
2022/05/07 03:17:00;;;;;;;11.30;3.47;;;;;;;13.90;64.20;102328.00;5018244;28;96734;-35
2022/05/07 03:19:26;;;;;;;10.00;3.55;;;;;;;13.88;64.13;102329.91;5019251;28;112513;-35
2022/05/07 03:21:51;;;;;;;10.18;3.15;;;;;;;13.91;63.92;102344.25;5019549;28;99340;-34
2022/05/07 03:24:16;;;;;;;11.93;3.40;;;;;;;13.94;64.19;102344.09;5019696;28;97249;-35
2022/05/07 03:26:42;;;;;;;8.00;3.63;;;;;;;13.92;64.54;102342.41;5020047;28;96767;-35
2022/05/07 03:29:07;;;;;;;8.63;2.88;;;;;;;13.86;63.93;102331.84;5020003;28;96914;-35
2022/05/07 03:31:33;;;;;;;12.18;4.15;;;;;;;13.87;65.30;102334.50;5019510;28;98206;-35
2022/05/07 03:33:58;;;;;;;9.52;4.05;;;;;;;13.92;64.54;102345.13;5019750;28;97504;-35
2022/05/07 03:36:23;;;;;;;11.88;4.35;;;;;;;13.87;65.38;102342.66;5018964;28;111652;-34
2022/05/07 03:38:49;;;;;;;10.82;3.38;;;;;;;13.86;64.58;102350.91;5020361;28;96829;-34
2022/05/07 03:41:19;;;;;;;9.45;3.55;;;;;;;13.82;66.65;102342.00;5018820;28;98124;-35
2022/05/07 03:43:45;;;;;;;7.95;3.17;;;;;;;13.81;66.22;102341.13;5001273;28;101878;-35
2022/05/07 03:46:10;;;;;;;10.30;3.05;;;;;;;13.81;64.78;102340.25;5001691;28;96776;-35
2022/05/07 03:48:36;;;;;;;11.15;3.72;;;;;;;13.84;65.47;102344.66;5019541;28;97121;-35
2022/05/07 03:51:01;;;;;;;11.55;3.92;;;;;;;13.80;65.58;102343.94;5019295;28;97908;-35
2022/05/07 03:53:29;;;;;;;9.00;3.88;;;;;;;13.75;65.55;102340.53;5018367;28;120110;-35
2022/05/07 03:55:55;;;;;;;10.90;4.07;;;;;;;13.79;65.74;102344.88;5018008;28;96691;-35
2022/05/07 03:58:20;;;;;;;9.52;3.88;;;;;;;13.75;66.24;102346.91;5019778;28;97863;-35
2022/05/07 04:00:45;;;;;;;12.15;3.28;;;;;;;13.76;65.95;102353.22;5018097;28;126618;-35
2022/05/07 04:03:12;;;;;;;10.63;4.32;;;;;;;13.78;66.22;102351.31;5019182;28;97755;-34
2022/05/07 04:05:38;;;;;;;8.50;4.00;;;;;;;13.69;65.72;102336.31;5019196;28;96611;-35
2022/05/07 04:08:04;;;;;;;6.43;3.28;;;;;;;13.68;68.26;102340.00;5001378;28;96870;-34
2022/05/07 04:10:29;;;;;;;12.30;4.15;;;;;;;13.67;66.03;102331.91;4999722;28;102448;-35
2022/05/07 04:12:55;;;;;;;9.43;3.95;;;;;;;13.65;65.89;102333.81;5017958;28;120986;-35
2022/05/07 04:15:21;;;;;;;12.98;3.83;;;;;;;13.66;67.06;102349.16;5019422;28;96779;-35
2022/05/07 04:17:47;;;;;;;13.73;4.72;;;;;;;13.60;67.00;102348.53;5017783;28;96847;-34
2022/05/07 04:20:13;;;;;;;11.98;4.15;;;;;;;13.62;67.75;102350.31;5016791;28;99173;-34
2022/05/07 04:22:38;;;;;;;10.57;4.38;;;;;;;13.64;66.44;102360.16;5001046;28;100802;-35
2022/05/07 04:25:05;;;;;;;12.02;3.85;;;;;;;13.55;66.62;102347.00;5017433;28;96689;-35
2022/05/07 04:27:30;;;;;;;13.02;4.32;;;;;;;13.57;67.47;102354.13;5019059;28;96879;-35
2022/05/07 04:29:57;;;;;;;10.07;3.90;;;;;;;13.62;67.57;102366.66;5018303;28;97858;-34
2022/05/07 04:32:26;;;;;;;11.18;4.38;;;;;;;13.58;68.90;102363.19;5018530;28;97802;-34
2022/05/07 04:34:51;;;;;;;8.52;3.35;;;;;;;13.67;67.09;102381.78;5017415;28;96633;-34
2022/05/07 04:37:17;;;;;;;9.50;4.32;;;;;;;13.67;67.48;102380.91;5019187;28;96844;-35
2022/05/07 04:39:42;;;;;;;12.48;4.65;;;;;;;13.71;66.60;102377.97;5018398;28;98147;-35
2022/05/07 04:42:08;;;;;;;12.50;3.97;;;;;;;13.64;66.25;102368.31;5018238;28;99328;-35
2022/05/07 04:44:34;;;;;;;17.15;4.28;;;;;;;13.69;66.63;102379.88;5000730;28;96590;-34
2022/05/07 04:46:59;;;;;;;11.57;4.20;;;;;;;13.75;66.74;102387.75;5019014;28;96961;-35
2022/05/07 04:49:25;;;;;;;13.88;5.03;;;;;;;13.73;65.76;102380.59;5018320;28;97849;-34
2022/05/07 04:51:52;;;;;;;10.10;4.70;;;;;;;13.81;66.37;102383.81;5018229;28;97278;-35
2022/05/07 04:54:19;;;;;;;10.77;4.80;;;;;;;13.82;66.17;102380.13;5018082;28;96613;-34
2022/05/07 04:56:48;;;;;;;13.80;4.80;;;;;;;13.85;65.76;102382.72;5000588;28;96905;-35
2022/05/07 04:59:15;;;;;;;9.95;4.50;;;;;;;13.86;65.84;102387.19;5016617;28;102388;-34
2022/05/07 05:01:40;;;;;;;15.82;4.65;;;;;;;13.87;66.19;102388.06;5000069;28;100974;-34
2022/05/07 05:04:05;;;;;;;12.52;4.43;;;;;;;13.81;66.24;102370.19;5018805;28;96506;-35
2022/05/07 05:06:31;;;;;;;12.38;5.30;;;;;;;13.90;65.91;102385.19;5018604;28;96770;-35
2022/05/07 05:08:56;;;;;;;10.23;4.70;;;;;;;13.93;66.49;102393.22;5017109;28;126446;-35
2022/05/07 05:11:22;;;;;;;14.70;5.15;;;;;;;13.90;65.99;102382.47;5017849;28;99299;-35
2022/05/07 05:13:47;;;;;;;14.27;5.00;;;;;;;13.92;66.00;102378.72;5017724;28;96709;-35
2022/05/07 05:16:12;;;;;;;12.68;4.15;;;;;;;14.00;65.77;102384.63;5018480;28;96964;-35
2022/05/07 05:18:38;;;;;;;15.30;4.85;;;;;;;14.02;65.52;102381.84;5017635;28;97459;-35
2022/05/07 05:21:04;;;;;;;15.00;4.55;;;;;;;14.07;65.53;102400.69;5017721;28;99127;-35
2022/05/07 05:23:30;;;;;;;16.15;5.90;;;;;;;14.00;65.68;102389.22;5000174;28;96574;-34
2022/05/07 05:25:55;;;;;;;12.55;4.85;;;;;;;13.99;65.52;102380.16;5016895;28;96886;-35
2022/05/07 05:28:21;;;;;;;9.65;4.45;;;;;;;14.03;65.91;102387.19;5017811;28;97924;-34
2022/05/07 05:30:51;;;;;;;11.02;4.82;;;;;;;14.08;65.34;102392.41;5017829;28;97371;-34
2022/05/07 05:33:17;;;;;;;12.43;4.50;;;;;;;14.08;66.20;102397.84;5017175;28;96603;-34
2022/05/07 05:35:42;;;;;;;14.00;5.38;;;;;;;14.02;66.41;102396.34;5018349;28;96775;-35
2022/05/07 05:38:07;;;;;;;14.13;5.25;;;;;;;14.07;65.68;102401.56;5016564;28;127165;-35
2022/05/07 05:40:33;;;;;;;16.05;5.15;;;;;;;14.15;65.62;102409.34;5017236;28;98525;-34
2022/05/07 05:42:58;;;;;;;17.10;6.10;;;;;;;14.18;66.03;102411.88;5017640;28;96455;-34
2022/05/07 05:45:23;;;;;;;11.40;5.38;;;;;;;14.16;66.12;102405.66;5018112;28;96795;-34
2022/05/07 05:47:49;;;;;;;16.25;5.60;;;;;;;14.14;65.97;102413.03;5016519;28;127224;-34
2022/05/07 05:50:15;;;;;;;22.00;6.55;;;;;;;14.07;66.27;102404.28;5017135;28;99384;-35
2022/05/07 05:52:40;;;;;;;13.77;5.15;;;;;;;14.17;66.03;102408.28;5017793;28;96495;-34
2022/05/07 05:55:06;;;;;;;21.95;6.18;;;;;;;14.25;65.48;102416.06;5016894;28;111512;-34
2022/05/07 05:57:31;;;;;;;15.90;6.40;;;;;;;14.30;65.77;102416.72;5017086;28;99758;-34
2022/05/07 05:59:56;;;;;;;14.93;5.38;;;;;;;14.36;65.61;102413.66;5016646;28;124233;-34
2022/05/07 06:02:23;;;;;;;12.75;5.28;;;;;;;14.42;65.41;102409.75;5016801;28;111470;-34
2022/05/07 06:04:48;;;;;;;18.30;4.93;;;;;;;14.60;65.52;102424.28;4999594;28;96765;-35
2022/05/07 06:07:13;;;;;;;11.50;4.85;;;;;;;14.58;65.29;102421.63;5016623;28;97495;-34
2022/05/07 06:09:39;;;;;;;10.63;4.97;;;;;;;14.64;65.17;102428.63;5017017;28;97857;-34
2022/05/07 06:12:04;;;;;;;13.07;5.47;;;;;;;14.65;65.23;102425.78;5016494;28;108751;-34
2022/05/07 06:14:30;;;;;;;12.35;5.47;;;;;;;14.63;65.38;102416.84;5017195;28;96918;-34
2022/05/07 06:16:55;;;;;;;15.32;5.38;;;;;;;14.65;65.39;102419.44;5016653;28;111125;-34
2022/05/07 06:19:20;;;;;;;11.88;4.53;;;;;;;14.68;65.51;102421.13;5015873;28;125141;-34
2022/05/07 06:21:45;;;;;;;13.93;4.80;;;;;;;14.78;65.07;102415.13;5016760;28;104811;-34
2022/05/07 06:29:39;;;;;;;13.40;4.40;;;;;;;15.33;64.27;102426.69;5017135;28;96905;-34
2022/05/07 06:32:04;;;;;;;11.35;5.32;;;;;;;15.50;63.90;102423.88;5015425;28;114444;-34
2022/05/07 06:34:29;;;;;;;14.07;5.18;;;;;;;15.67;64.08;102428.34;5017324;28;96890;-34
2022/05/07 06:36:57;;;;;;;14.85;4.45;;;;;;;15.78;63.78;102416.81;5016665;28;98802;-34
2022/05/07 06:39:23;;;;;;;11.70;5.03;;;;;;;15.96;63.28;102425.81;5016567;28;99280;-34
2022/05/07 06:41:51;;;;;;;13.98;5.00;;;;;;;16.17;63.02;102431.84;5017466;28;96544;-34
2022/05/07 06:44:16;;;;;;;14.43;4.60;;;;;;;16.27;63.59;102435.78;5000953;28;96864;-34
2022/05/07 06:46:41;;;;;;;10.68;4.95;;;;;;;16.31;62.50;102419.09;5020083;28;97931;-35
2022/05/07 06:49:07;;;;;;;10.20;5.05;;;;;;;16.48;62.85;102425.41;5019536;28;126830;-34
2022/05/07 06:51:34;;;;;;;15.88;4.97;;;;;;;16.60;62.32;102421.91;5019953;28;108533;-34
2022/05/07 06:53:59;;;;;;;14.52;4.97;;;;;;;16.72;62.15;102431.22;5019135;28;96845;-34
2022/05/07 06:56:24;;;;;;;14.80;4.55;;;;;;;16.78;62.18;102425.38;5018706;28;126565;-34
2022/05/07 06:58:50;;;;;;;12.07;4.65;;;;;;;16.87;61.84;102437.63;5019140;28;127215;-34
2022/05/07 07:01:15;;;;;;;10.43;4.00;;;;;;;16.94;61.83;102420.69;5002561;28;96798;-34
2022/05/07 07:03:41;;;;;;;12.02;4.35;;;;;;;17.08;62.20;102427.16;5020500;28;96847;-35
2022/05/07 07:06:06;;;;;;;7.85;3.58;;;;;;;17.20;61.46;102432.72;5019968;28;97922;-35
2022/05/07 07:08:32;;;;;;;7.97;3.42;;;;;;;17.29;61.13;102442.22;5019662;28;99038;-34
2022/05/07 07:10:58;;;;;;;8.40;3.83;;;;;;;17.41;61.20;102446.03;5016891;28;96890;-34
2022/05/07 07:13:24;;;;;;;7.45;3.45;;;;;;;17.48;60.80;102430.06;5016326;28;96942;-34
2022/05/07 07:15:50;;;;;;;12.40;4.18;;;;;;;17.61;60.85;102437.41;5017519;28;97454;-35
2022/05/07 07:18:16;;;;;;;8.50;4.03;;;;;;;17.74;60.57;102434.72;5015910;28;100820;-35
2022/05/07 07:20:43;;;;;;;10.10;3.63;;;;;;;17.83;59.91;102430.53;5017145;28;96756;-34
2022/05/07 07:23:13;;;;;;;11.80;3.05;;;;;;;18.00;59.87;102435.75;4982836;28;96963;-34
2022/05/07 07:25:40;;;;;;;8.48;3.28;;;;;;;18.08;59.63;102431.59;4999108;28;101494;-34
2022/05/07 07:28:06;;;;;;;7.65;3.58;;;;;;;18.12;59.40;102427.66;4999039;28;100646;-35
2022/05/07 07:30:32;;;;;;;8.65;3.67;;;;;;;18.16;59.40;102427.34;5017284;28;96662;-34
2022/05/07 07:32:57;;;;;;;14.23;3.58;;;;;;;18.13;59.59;102427.53;5017310;28;96869;-34
2022/05/07 07:35:22;;;;;;;7.68;3.35;;;;;;;18.25;59.66;102423.94;5016426;28;115793;-34
2022/05/07 07:37:48;;;;;;;11.75;4.25;;;;;;;18.45;59.06;102427.22;5017415;28;97857;-34
2022/05/07 07:40:14;;;;;;;8.52;3.53;;;;;;;18.54;59.06;102418.31;5016959;28;97014;-35
2022/05/07 07:42:42;;;;;;;5.60;2.53;;;;;;;18.66;58.49;102425.69;5017441;28;96788;-35
2022/05/07 07:48:03;;;;;;;5.53;2.75;;;;;;;18.86;57.72;102423.44;5016949;28;97065;-34
2022/05/07 07:50:34;;;;;;;5.97;2.38;;;;;;;19.09;57.36;102421.75;5015762;28;96607;-35
2022/05/07 07:53:02;;;;;;;4.33;2.13;;;;;;;19.17;57.37;102418.47;4998814;28;96758;-34
2022/05/07 07:55:28;;;;;;;6.75;2.45;;;;;;;19.30;56.76;102431.16;4997456;28;101393;-34
2022/05/07 07:58:04;;;;;;;4.70;1.98;;;;;;;19.42;56.36;102428.53;4998614;28;100974;-34
2022/05/07 08:00:31;;;;;;;4.95;2.08;;;;;;;19.58;56.28;102420.91;5017106;28;96579;-35
2022/05/07 08:03:03;;;;;;;4.50;2.05;;;;;;;19.73;55.63;102436.28;5015771;28;96932;-35
2022/05/07 08:05:29;;;;;;;6.22;2.00;;;;;;;;;;5015240;28;99203;-35
2022/05/07 08:13:23;;;;;;;4.32;2.00;;;;;;;20.24;54.50;102434.31;5016600;28;96773;-35
2022/05/07 08:15:49;;;;;;;4.40;2.20;;;;;;;20.30;54.37;102434.69;4998229;28;98145;-35
2022/05/07 08:18:15;;;;;;;8.30;2.20;;;;;;;20.44;54.43;102438.25;5016069;28;97775;-35
2022/05/07 08:20:41;;;;;;;4.65;2.17;;;;;;;20.48;53.77;102432.38;4997678;28;96652;-34
2022/05/07 08:23:08;;;;;;;6.57;2.33;;;;;;;20.58;53.61;102441.69;4997881;28;96982;-35
2022/05/07 08:25:34;;;;;;;3.00;2.17;;;;;;;20.76;53.44;102439.38;4998004;28;101172;-34
2022/05/07 08:27:59;;;;;;;2.83;1.70;;;;;;;20.79;52.89;102441.88;4997490;28;100652;-35
2022/05/07 08:30:25;;;;;;;4.05;2.00;;;;;;;20.74;52.61;102438.63;5015686;28;112490;-35
2022/05/07 08:32:51;;;;;;;5.68;2.10;;;;;;;20.80;53.07;102448.25;5016626;28;96506;-35
2022/05/07 08:35:16;;;;;;;12.55;2.53;;;;;;;20.87;53.01;102444.00;5014266;28;101589;-34
2022/05/07 08:37:42;;;;;;;7.47;2.58;;;;;;;20.99;53.07;102439.41;5016118;28;97855;-34
2022/05/07 08:40:08;;;;;;;5.00;1.98;;;;;;;21.03;52.49;102445.56;5015816;28;96541;-35
2022/05/07 08:42:37;;;;;;;5.75;2.20;;;;;;;21.21;52.27;102435.78;5016477;28;96750;-35
2022/05/07 08:45:02;;;;;;;5.60;2.20;;;;;;;21.37;51.66;102443.69;4997609;28;100878;-34
2022/05/07 08:47:29;;;;;;;6.20;2.50;;;;;;;21.39;51.26;102449.94;5015465;28;97783;-34
2022/05/07 08:49:54;;;;;;;5.47;2.13;;;;;;;21.37;51.42;102458.34;5016100;28;96545;-35
2022/05/07 08:52:22;;;;;;;3.72;1.92;;;;;;;21.46;51.55;102440.19;5016570;28;96749;-34
2022/05/07 08:54:47;;;;;;;7.70;2.28;;;;;;;21.69;51.22;102457.59;4997535;28;100892;-34
2022/05/07 08:57:13;;;;;;;6.45;2.80;;;;;;;21.67;50.98;102439.44;5015545;28;98753;-34
2022/05/07 08:59:39;;;;;;;4.38;2.42;;;;;;;21.76;51.30;102446.91;5015489;28;97557;-34
2022/05/07 09:02:05;;;;;;;4.95;2.50;;;;;;;21.83;50.29;102456.44;5015662;28;96617;-35
2022/05/07 09:04:31;;;;;;;5.45;2.45;;;;;;;21.72;50.55;102459.22;4997543;28;100877;-35
2022/05/07 09:06:58;;;;;;;5.45;2.47;;;;;;;21.79;51.00;102460.47;5015280;28;98796;-35
2022/05/07 09:09:23;;;;;;;4.45;2.10;;;;;;;21.93;49.24;102464.81;4997411;28;96666;-35
2022/05/07 09:11:49;;;;;;;5.10;1.90;;;;;;;21.97;50.67;102464.41;5015665;28;96826;-35
2022/05/07 09:14:18;;;;;;;11.80;2.78;;;;;;;22.00;50.63;102457.75;5015030;28;98073;-34
2022/05/07 09:16:51;;;;;;;7.43;2.38;;;;;;;22.05;49.97;102456.38;5014213;28;99156;-35
2022/05/07 09:19:27;;;;;;;6.20;2.80;;;;;;;21.92;50.00;102463.94;4996867;28;97008;-35
2022/05/07 09:22:09;;;;;;;5.93;2.58;;;;;;;22.05;49.45;102450.00;5015924;28;96553;-35
2022/05/07 09:24:35;;;;;;;4.88;2.05;;;;;;;22.25;49.33;102467.63;4995020;28;100980;-35
2022/05/07 09:27:04;;;;;;;5.15;2.35;;;;;;;22.33;49.60;102467.84;4996321;28;100589;-35
2022/05/07 09:29:31;;;;;;;5.22;2.00;;;;;;;22.37;48.11;102463.81;5030492;28;96658;-35
2022/05/07 09:32:16;;;;;;;4.10;2.00;;;;;;;22.51;47.96;102467.28;5015302;28;96831;-35
2022/05/07 09:37:35;;;;;;;5.57;2.10;;;;;;;22.85;47.90;102459.66;5015184;28;96994;-35
2022/05/07 09:40:06;;;;;;;6.30;2.92;;;;;;;22.80;47.24;102465.59;4997402;28;96715;-35
2022/05/07 09:42:33;;;;;;;4.03;2.33;;;;;;;22.54;48.38;102470.66;4997626;28;96931;-35
2022/05/07 09:45:01;;;;;;;5.53;2.58;;;;;;;22.11;49.30;102454.09;4996958;28;101487;-35
2022/05/07 09:47:30;;;;;;;5.68;2.70;;;;;;;21.77;48.99;102468.00;4996812;28;100886;-35
2022/05/07 09:57:30;;;;;;;5.18;2.47;;;;;;;22.33;48.80;102464.22;5015573;28;96550;-35
2022/05/07 09:58:12;;;;;;;5.70;2.17;;;;;;;22.12;48.81;102473.31;5014956;28;97010;-35
2022/05/07 10:00:49;;;;;;;5.78;2.80;;;;;;;21.82;48.07;102469.34;5015236;28;96525;-35
2022/05/07 10:03:27;;;;;;;5.85;2.42;;;;;;;21.66;49.89;102465.25;4997042;28;96698;-35
2022/05/07 10:06:13;;;;;;;6.47;2.67;;;;;;;21.62;49.96;102481.19;4996770;28;101247;-35
2022/05/07 10:08:56;;;;;;;5.60;2.80;;;;;;;21.61;49.68;102485.78;5002849;28;113563;-35
2022/05/07 10:11:23;;;;;;;5.30;2.28;;;;;;;21.63;49.91;102478.28;5021679;28;96692;-35
2022/05/07 10:13:55;;;;;;;12.15;2.92;;;;;;;21.55;49.56;102483.56;5013333;28;96902;-35
2022/05/07 10:16:23;;;;;;;6.18;2.70;;;;;;;21.32;49.24;102474.38;4996007;28;101286;-35
2022/05/07 10:18:49;;;;;;;8.07;2.78;;;;;;;21.33;49.78;102467.88;5012397;28;100898;-35
2022/05/07 10:21:19;;;;;;;7.72;2.55;;;;;;;21.50;49.87;102479.41;5013188;28;96815;-35
2022/05/07 10:23:55;;;;;;;6.70;3.03;;;;;;;21.31;49.43;102488.28;4996701;28;96738;-35
2022/05/07 10:26:42;;;;;;;5.45;2.50;;;;;;;21.08;49.90;102477.25;5014406;28;99382;-35
2022/05/07 10:29:20;;;;;;;4.68;2.72;;;;;;;20.90;50.41;102485.09;5013707;28;97827;-35
2022/05/07 10:31:45;;;;;;;5.75;2.67;;;;;;;20.88;50.17;102486.22;5030039;28;96697;-35
2022/05/07 10:34:10;;;;;;;6.60;2.45;;;;;;;20.75;49.95;102483.56;5014760;28;96870;-34
2022/05/07 10:36:36;;;;;;;5.38;2.47;;;;;;;20.74;50.04;102468.91;5014119;28;99558;-34
2022/05/07 10:39:08;;;;;;;5.47;2.35;;;;;;;21.01;50.23;102484.25;5014456;28;97805;-35
2022/05/07 10:41:46;;;;;;;4.55;2.28;;;;;;;21.02;50.06;102487.88;5029449;28;96554;-34
2022/05/07 10:44:11;;;;;;;5.63;2.30;;;;;;;20.88;50.27;102475.19;5012952;28;96863;-35
2022/05/07 10:46:38;;;;;;;4.63;2.25;;;;;;;20.97;50.21;102485.47;5014379;28;97963;-35
2022/05/07 10:49:07;;;;;;;5.55;2.30;;;;;;;21.07;50.37;102488.38;5014293;28;97894;-35
2022/05/07 10:51:35;;;;;;;9.70;4.03;;;;;;;21.27;49.72;102478.53;5014417;28;96580;-35
2022/05/07 10:54:03;;;;;;;6.75;2.72;;;;;;;21.29;49.95;102479.28;5012942;28;96871;-34
2022/05/07 10:56:33;;;;;;;6.03;2.97;;;;;;;21.18;49.94;102483.75;4995820;28;101229;-35
2022/05/07 10:58:59;;;;;;;7.57;3.15;;;;;;;21.36;49.24;102475.88;5013145;28;99436;-35
2022/05/07 11:01:31;;;;;;;7.10;2.97;;;;;;;21.70;48.94;102480.53;5012984;28;96691;-35
2022/05/07 11:04:07;;;;;;;8.27;2.47;;;;;;;21.87;47.89;102491.03;5014134;28;96700;-35
2022/05/07 11:06:45;;;;;;;6.20;2.67;;;;;;;21.99;47.05;102483.63;4995384;28;100791;-35
2022/05/07 11:09:16;;;;;;;7.43;1.60;;;;;;;22.25;45.70;102475.91;5013912;28;97911;-35
2022/05/07 11:11:46;;;;;;;5.13;2.22;;;;;;;22.31;47.05;102474.50;5013491;28;96775;-35
2022/05/07 11:14:26;;;;;;;7.60;3.58;;;;;;;22.60;45.94;102466.50;5013658;28;96864;-35
2022/05/07 11:16:53;;;;;;;5.82;2.33;;;;;;;22.79;46.29;102480.44;5013762;28;99461;-35
2022/05/07 11:19:31;;;;;;;6.10;2.20;;;;;;;22.93;46.22;102470.03;4995736;28;101126;-34
2022/05/07 11:21:57;;;;;;;3.47;1.85;;;;;;;23.18;45.00;102471.53;5012467;28;96618;-35
2022/05/07 11:24:25;;;;;;;6.25;2.38;;;;;;;23.30;44.83;102478.72;4996363;28;96686;-35
2022/05/07 11:27:05;;;;;;;6.00;2.67;;;;;;;23.53;45.53;102480.28;4995631;28;101494;-35
2022/05/07 11:29:31;;;;;;;7.43;3.08;;;;;;;23.60;45.09;102468.69;5013701;28;98829;-35
2022/05/07 11:32:04;;;;;;;4.70;2.50;;;;;;;23.59;44.34;102467.78;4997963;28;96651;-35
2022/05/07 11:34:37;;;;;;;4.65;2.20;;;;;;;23.82;44.82;102484.22;5017054;28;96750;-35
2022/05/07 11:37:12;;;;;;;6.30;2.15;;;;;;;23.87;44.34;102487.44;4998842;28;101086;-35
2022/05/07 11:39:55;;;;;;;4.30;2.38;;;;;;;23.56;43.16;102475.50;5015420;28;101022;-35
2022/05/07 11:42:46;;;;;;;4.88;2.40;;;;;;;23.46;44.51;102468.03;5015709;28;96558;-35
2022/05/07 11:45:25;;;;;;;6.35;2.60;;;;;;;23.40;45.36;102463.06;5017221;28;96616;-35
2022/05/07 11:47:53;;;;;;;6.70;2.58;;;;;;;23.29;44.71;102472.34;5016696;28;99166;-34
2022/05/07 11:50:27;;;;;;;7.30;2.58;;;;;;;23.01;44.73;102470.28;4998946;28;100984;-34
2022/05/07 11:52:54;;;;;;;7.63;2.80;;;;;;;22.76;46.29;102469.63;5016884;28;96600;-35